sensor_id;sensor_type;location;lat;lon;timestamp;temperature;humidity
4602;DHT22;2313;48.552;9.370;2022-08-19T00:00:09;18.60;99.90
4602;DHT22;2313;48.552;9.370;2022-08-19T00:02:36;18.70;99.90
4602;DHT22;2313;48.552;9.370;2022-08-19T00:05:03;18.80;99.90
4602;DHT22;2313;48.552;9.370;2022-08-19T00:07:29;18.80;99.90
4602;DHT22;2313;48.552;9.370;2022-08-19T00:09:55;18.80;99.90
4602;DHT22;2313;48.552;9.370;2022-08-19T00:12:21;18.90;99.90
4602;DHT22;2313;48.552;9.370;2022-08-19T00:14:47;18.80;99.90
4602;DHT22;2313;48.552;9.370;2022-08-19T00:17:12;18.90;99.90
4602;DHT22;2313;48.552;9.370;2022-08-19T00:19:38;18.90;99.90
4602;DHT22;2313;48.552;9.370;2022-08-19T00:22:04;18.80;99.90
4602;DHT22;2313;48.552;9.370;2022-08-19T00:24:31;18.80;99.90
4602;DHT22;2313;48.552;9.370;2022-08-19T00:26:57;18.80;99.90
4602;DHT22;2313;48.552;9.370;2022-08-19T00:29:24;18.60;99.90
4602;DHT22;2313;48.552;9.370;2022-08-19T00:31:51;18.60;99.90
4602;DHT22;2313;48.552;9.370;2022-08-19T00:34:20;18.70;99.90
4602;DHT22;2313;48.552;9.370;2022-08-19T00:36:45;18.70;99.90
4602;DHT22;2313;48.552;9.370;2022-08-19T00:39:12;18.60;99.90
4602;DHT22;2313;48.552;9.370;2022-08-19T00:41:38;18.60;99.90
4602;DHT22;2313;48.552;9.370;2022-08-19T00:44:12;18.60;99.90
4602;DHT22;2313;48.552;9.370;2022-08-19T00:46:40;18.40;99.90
4602;DHT22;2313;48.552;9.370;2022-08-19T00:49:34;18.50;99.90
4602;DHT22;2313;48.552;9.370;2022-08-19T00:52:07;18.40;99.90
4602;DHT22;2313;48.552;9.370;2022-08-19T00:54:35;18.30;99.90
4602;DHT22;2313;48.552;9.370;2022-08-19T00:57:04;18.40;99.90
4602;DHT22;2313;48.552;9.370;2022-08-19T00:59:31;18.40;99.90
4602;DHT22;2313;48.552;9.370;2022-08-19T01:01:59;18.60;99.90
4602;DHT22;2313;48.552;9.370;2022-08-19T01:04:25;18.60;99.90
4602;DHT22;2313;48.552;9.370;2022-08-19T01:06:51;18.60;99.90
4602;DHT22;2313;48.552;9.370;2022-08-19T01:09:16;18.60;99.90
4602;DHT22;2313;48.552;9.370;2022-08-19T01:11:43;18.60;99.90
4602;DHT22;2313;48.552;9.370;2022-08-19T01:14:10;18.60;99.90
4602;DHT22;2313;48.552;9.370;2022-08-19T01:16:38;18.60;99.90
4602;DHT22;2313;48.552;9.370;2022-08-19T01:22:00;18.50;99.90
4602;DHT22;2313;48.552;9.370;2022-08-19T01:24:27;18.60;99.90
4602;DHT22;2313;48.552;9.370;2022-08-19T01:26:52;18.50;99.90
4602;DHT22;2313;48.552;9.370;2022-08-19T01:29:18;18.50;99.90
4602;DHT22;2313;48.552;9.370;2022-08-19T01:31:44;18.50;99.90
4602;DHT22;2313;48.552;9.370;2022-08-19T01:34:10;18.50;99.90
4602;DHT22;2313;48.552;9.370;2022-08-19T01:36:42;18.50;99.90
4602;DHT22;2313;48.552;9.370;2022-08-19T01:39:14;18.50;99.90
4602;DHT22;2313;48.552;9.370;2022-08-19T01:41:40;18.50;99.90
4602;DHT22;2313;48.552;9.370;2022-08-19T01:44:07;18.40;99.90
4602;DHT22;2313;48.552;9.370;2022-08-19T01:46:34;18.40;99.90
4602;DHT22;2313;48.552;9.370;2022-08-19T01:49:00;18.40;99.90
4602;DHT22;2313;48.552;9.370;2022-08-19T01:51:27;18.40;99.90
4602;DHT22;2313;48.552;9.370;2022-08-19T01:53:52;18.40;99.90
4602;DHT22;2313;48.552;9.370;2022-08-19T01:56:19;18.40;99.90
4602;DHT22;2313;48.552;9.370;2022-08-19T01:58:51;18.50;99.90
4602;DHT22;2313;48.552;9.370;2022-08-19T02:01:18;18.50;99.90
4602;DHT22;2313;48.552;9.370;2022-08-19T02:03:44;18.40;99.90
4602;DHT22;2313;48.552;9.370;2022-08-19T02:06:10;18.40;99.90
4602;DHT22;2313;48.552;9.370;2022-08-19T02:08:37;18.40;99.90
4602;DHT22;2313;48.552;9.370;2022-08-19T02:11:04;18.40;99.90
4602;DHT22;2313;48.552;9.370;2022-08-19T02:13:31;18.40;99.90
4602;DHT22;2313;48.552;9.370;2022-08-19T02:15:56;18.40;99.90
4602;DHT22;2313;48.552;9.370;2022-08-19T02:18:23;18.30;99.90
4602;DHT22;2313;48.552;9.370;2022-08-19T02:20:49;18.20;99.90
4602;DHT22;2313;48.552;9.370;2022-08-19T02:23:15;18.30;99.90
4602;DHT22;2313;48.552;9.370;2022-08-19T02:25:44;18.40;99.90
4602;DHT22;2313;48.552;9.370;2022-08-19T02:28:10;18.30;99.90
4602;DHT22;2313;48.552;9.370;2022-08-19T02:30:37;18.30;99.90
4602;DHT22;2313;48.552;9.370;2022-08-19T02:33:04;18.30;99.90
4602;DHT22;2313;48.552;9.370;2022-08-19T02:35:30;18.30;99.90
4602;DHT22;2313;48.552;9.370;2022-08-19T02:37:56;18.40;99.90
4602;DHT22;2313;48.552;9.370;2022-08-19T02:40:40;18.30;99.90
4602;DHT22;2313;48.552;9.370;2022-08-19T02:43:07;18.30;99.90
4602;DHT22;2313;48.552;9.370;2022-08-19T02:45:38;18.20;99.90
4602;DHT22;2313;48.552;9.370;2022-08-19T02:48:05;18.10;99.90
4602;DHT22;2313;48.552;9.370;2022-08-19T02:50:32;18.10;99.90
4602;DHT22;2313;48.552;9.370;2022-08-19T02:52:57;18.00;99.90
4602;DHT22;2313;48.552;9.370;2022-08-19T02:55:23;18.00;99.90
4602;DHT22;2313;48.552;9.370;2022-08-19T02:57:49;18.00;99.90
4602;DHT22;2313;48.552;9.370;2022-08-19T03:00:15;18.00;99.90
4602;DHT22;2313;48.552;9.370;2022-08-19T03:02:41;17.90;99.90
4602;DHT22;2313;48.552;9.370;2022-08-19T03:05:08;17.90;99.90
4602;DHT22;2313;48.552;9.370;2022-08-19T03:07:35;17.80;99.90
4602;DHT22;2313;48.552;9.370;2022-08-19T03:10:01;17.80;99.90
4602;DHT22;2313;48.552;9.370;2022-08-19T03:12:26;17.80;99.90
4602;DHT22;2313;48.552;9.370;2022-08-19T03:14:52;17.80;99.90
4602;DHT22;2313;48.552;9.370;2022-08-19T03:17:18;18.00;99.90
4602;DHT22;2313;48.552;9.370;2022-08-19T03:19:44;18.00;99.90
4602;DHT22;2313;48.552;9.370;2022-08-19T03:22:10;18.10;99.90
4602;DHT22;2313;48.552;9.370;2022-08-19T03:24:37;18.10;99.90
4602;DHT22;2313;48.552;9.370;2022-08-19T03:27:02;18.20;99.90
4602;DHT22;2313;48.552;9.370;2022-08-19T03:29:31;18.20;99.90
4602;DHT22;2313;48.552;9.370;2022-08-19T03:32:03;18.20;99.90
4602;DHT22;2313;48.552;9.370;2022-08-19T03:34:30;18.10;99.90
4602;DHT22;2313;48.552;9.370;2022-08-19T03:36:59;18.20;99.90
4602;DHT22;2313;48.552;9.370;2022-08-19T03:39:26;18.10;99.90
4602;DHT22;2313;48.552;9.370;2022-08-19T03:41:53;18.00;99.90
4602;DHT22;2313;48.552;9.370;2022-08-19T03:44:22;18.00;99.90
4602;DHT22;2313;48.552;9.370;2022-08-19T03:46:51;18.10;99.90
4602;DHT22;2313;48.552;9.370;2022-08-19T03:49:17;18.00;99.90
4602;DHT22;2313;48.552;9.370;2022-08-19T03:51:43;18.00;99.90
4602;DHT22;2313;48.552;9.370;2022-08-19T03:54:11;18.00;99.90
4602;DHT22;2313;48.552;9.370;2022-08-19T03:56:39;18.00;99.90
4602;DHT22;2313;48.552;9.370;2022-08-19T03:59:07;18.00;99.90
4602;DHT22;2313;48.552;9.370;2022-08-19T04:01:32;18.00;99.90
4602;DHT22;2313;48.552;9.370;2022-08-19T04:03:59;17.90;99.90
4602;DHT22;2313;48.552;9.370;2022-08-19T04:06:36;17.70;99.90
4602;DHT22;2313;48.552;9.370;2022-08-19T04:09:04;17.70;99.90
4602;DHT22;2313;48.552;9.370;2022-08-19T04:11:35;17.80;99.90
4602;DHT22;2313;48.552;9.370;2022-08-19T04:14:01;17.90;99.90
4602;DHT22;2313;48.552;9.370;2022-08-19T04:16:27;18.00;99.90
4602;DHT22;2313;48.552;9.370;2022-08-19T04:18:59;18.00;99.90
4602;DHT22;2313;48.552;9.370;2022-08-19T04:21:26;18.00;99.90
4602;DHT22;2313;48.552;9.370;2022-08-19T04:23:54;18.00;99.90
4602;DHT22;2313;48.552;9.370;2022-08-19T04:26:29;18.10;99.90
4602;DHT22;2313;48.552;9.370;2022-08-19T04:29:18;18.10;99.90
4602;DHT22;2313;48.552;9.370;2022-08-19T04:31:47;18.10;99.90
4602;DHT22;2313;48.552;9.370;2022-08-19T04:34:15;18.10;99.90
4602;DHT22;2313;48.552;9.370;2022-08-19T04:36:42;18.20;99.90
4602;DHT22;2313;48.552;9.370;2022-08-19T04:39:15;18.20;99.90
4602;DHT22;2313;48.552;9.370;2022-08-19T04:41:41;18.20;99.90
4602;DHT22;2313;48.552;9.370;2022-08-19T04:44:25;18.30;99.90
4602;DHT22;2313;48.552;9.370;2022-08-19T04:46:52;18.20;99.90
4602;DHT22;2313;48.552;9.370;2022-08-19T04:49:21;18.30;99.90
4602;DHT22;2313;48.552;9.370;2022-08-19T04:51:48;18.30;99.90
4602;DHT22;2313;48.552;9.370;2022-08-19T04:54:16;18.20;99.90
4602;DHT22;2313;48.552;9.370;2022-08-19T04:56:42;18.20;99.90
4602;DHT22;2313;48.552;9.370;2022-08-19T04:59:07;18.30;99.90
4602;DHT22;2313;48.552;9.370;2022-08-19T05:01:34;18.30;99.90
4602;DHT22;2313;48.552;9.370;2022-08-19T05:04:03;18.30;99.90
4602;DHT22;2313;48.552;9.370;2022-08-19T05:06:31;18.40;99.90
4602;DHT22;2313;48.552;9.370;2022-08-19T05:09:02;18.40;99.90
4602;DHT22;2313;48.552;9.370;2022-08-19T05:11:31;18.40;99.90
4602;DHT22;2313;48.552;9.370;2022-08-19T05:13:57;18.40;99.90
4602;DHT22;2313;48.552;9.370;2022-08-19T05:16:24;18.40;99.90
4602;DHT22;2313;48.552;9.370;2022-08-19T05:18:51;18.40;99.90
4602;DHT22;2313;48.552;9.370;2022-08-19T05:21:35;18.40;99.90
4602;DHT22;2313;48.552;9.370;2022-08-19T05:24:21;18.40;99.90
4602;DHT22;2313;48.552;9.370;2022-08-19T05:26:50;18.50;99.90
4602;DHT22;2313;48.552;9.370;2022-08-19T05:29:19;18.50;99.90
4602;DHT22;2313;48.552;9.370;2022-08-19T05:31:45;18.50;99.90
4602;DHT22;2313;48.552;9.370;2022-08-19T05:34:12;18.40;99.90
4602;DHT22;2313;48.552;9.370;2022-08-19T05:36:41;18.50;99.90
4602;DHT22;2313;48.552;9.370;2022-08-19T05:39:10;18.50;99.90
4602;DHT22;2313;48.552;9.370;2022-08-19T05:41:37;18.50;99.90
4602;DHT22;2313;48.552;9.370;2022-08-19T05:44:06;18.50;99.90
4602;DHT22;2313;48.552;9.370;2022-08-19T05:46:35;18.40;99.90
4602;DHT22;2313;48.552;9.370;2022-08-19T05:49:03;18.50;99.90
4602;DHT22;2313;48.552;9.370;2022-08-19T05:51:30;18.50;99.90
4602;DHT22;2313;48.552;9.370;2022-08-19T05:53:55;18.50;99.90
4602;DHT22;2313;48.552;9.370;2022-08-19T05:56:21;18.50;99.90
4602;DHT22;2313;48.552;9.370;2022-08-19T05:58:47;18.50;99.90
4602;DHT22;2313;48.552;9.370;2022-08-19T06:01:15;18.50;99.90
4602;DHT22;2313;48.552;9.370;2022-08-19T06:03:41;18.50;99.90
4602;DHT22;2313;48.552;9.370;2022-08-19T06:06:09;18.50;99.90
4602;DHT22;2313;48.552;9.370;2022-08-19T06:08:36;18.50;99.90
4602;DHT22;2313;48.552;9.370;2022-08-19T06:13:51;18.50;99.90
4602;DHT22;2313;48.552;9.370;2022-08-19T06:16:21;18.50;99.90
4602;DHT22;2313;48.552;9.370;2022-08-19T06:18:51;18.50;99.90
4602;DHT22;2313;48.552;9.370;2022-08-19T06:21:19;18.50;99.90
4602;DHT22;2313;48.552;9.370;2022-08-19T06:23:46;18.60;99.90
4602;DHT22;2313;48.552;9.370;2022-08-19T06:26:13;18.60;99.90
4602;DHT22;2313;48.552;9.370;2022-08-19T06:28:39;18.60;99.90
4602;DHT22;2313;48.552;9.370;2022-08-19T06:31:09;18.50;99.90
4602;DHT22;2313;48.552;9.370;2022-08-19T06:33:35;18.50;99.90
4602;DHT22;2313;48.552;9.370;2022-08-19T06:36:01;18.50;99.90
4602;DHT22;2313;48.552;9.370;2022-08-19T06:38:27;18.50;99.90
4602;DHT22;2313;48.552;9.370;2022-08-19T06:41:01;18.50;99.90
4602;DHT22;2313;48.552;9.370;2022-08-19T06:43:26;18.50;99.90
4602;DHT22;2313;48.552;9.370;2022-08-19T06:45:52;18.50;99.90
4602;DHT22;2313;48.552;9.370;2022-08-19T06:48:17;18.50;99.90
4602;DHT22;2313;48.552;9.370;2022-08-19T06:50:43;18.50;99.90
4602;DHT22;2313;48.552;9.370;2022-08-19T06:53:09;18.50;99.90
4602;DHT22;2313;48.552;9.370;2022-08-19T06:55:34;18.50;99.90
4602;DHT22;2313;48.552;9.370;2022-08-19T06:58:04;18.50;99.90
4602;DHT22;2313;48.552;9.370;2022-08-19T07:00:30;18.50;99.90
4602;DHT22;2313;48.552;9.370;2022-08-19T07:02:55;18.50;99.90
4602;DHT22;2313;48.552;9.370;2022-08-19T07:05:21;18.50;99.90
4602;DHT22;2313;48.552;9.370;2022-08-19T07:07:47;18.50;99.90
4602;DHT22;2313;48.552;9.370;2022-08-19T07:10:13;18.50;99.90
4602;DHT22;2313;48.552;9.370;2022-08-19T07:12:38;18.50;99.90
4602;DHT22;2313;48.552;9.370;2022-08-19T07:15:06;18.50;99.90
4602;DHT22;2313;48.552;9.370;2022-08-19T07:17:34;18.50;99.90
4602;DHT22;2313;48.552;9.370;2022-08-19T07:20:05;18.50;99.90
4602;DHT22;2313;48.552;9.370;2022-08-19T07:22:33;18.50;99.90
4602;DHT22;2313;48.552;9.370;2022-08-19T07:24:59;18.50;99.90
4602;DHT22;2313;48.552;9.370;2022-08-19T07:27:25;18.50;99.90
4602;DHT22;2313;48.552;9.370;2022-08-19T07:29:52;18.50;99.90
4602;DHT22;2313;48.552;9.370;2022-08-19T07:32:18;18.60;99.90
4602;DHT22;2313;48.552;9.370;2022-08-19T07:34:44;18.60;99.90
4602;DHT22;2313;48.552;9.370;2022-08-19T07:37:10;18.60;99.90
4602;DHT22;2313;48.552;9.370;2022-08-19T07:39:37;18.60;99.90
4602;DHT22;2313;48.552;9.370;2022-08-19T07:42:07;18.60;99.90
4602;DHT22;2313;48.552;9.370;2022-08-19T07:44:34;18.60;99.90
4602;DHT22;2313;48.552;9.370;2022-08-19T07:47:00;18.60;99.90
4602;DHT22;2313;48.552;9.370;2022-08-19T07:49:27;18.60;99.90
4602;DHT22;2313;48.552;9.370;2022-08-19T07:52:03;18.60;99.90
4602;DHT22;2313;48.552;9.370;2022-08-19T07:54:33;18.60;99.90
4602;DHT22;2313;48.552;9.370;2022-08-19T07:57:02;18.50;99.90
4602;DHT22;2313;48.552;9.370;2022-08-19T07:59:28;18.60;99.90
4602;DHT22;2313;48.552;9.370;2022-08-19T08:01:55;18.50;99.90
4602;DHT22;2313;48.552;9.370;2022-08-19T08:04:21;18.60;99.90
4602;DHT22;2313;48.552;9.370;2022-08-19T08:07:06;18.60;99.90
4602;DHT22;2313;48.552;9.370;2022-08-19T08:09:51;18.60;99.90
4602;DHT22;2313;48.552;9.370;2022-08-19T08:12:31;18.50;99.90
4602;DHT22;2313;48.552;9.370;2022-08-19T08:15:00;18.60;99.90
4602;DHT22;2313;48.552;9.370;2022-08-19T08:17:30;18.60;99.90
4602;DHT22;2313;48.552;9.370;2022-08-19T08:19:57;18.60;99.90
4602;DHT22;2313;48.552;9.370;2022-08-19T08:22:23;18.60;99.90
4602;DHT22;2313;48.552;9.370;2022-08-19T08:25:17;18.60;99.90
4602;DHT22;2313;48.552;9.370;2022-08-19T08:27:44;18.60;99.90
4602;DHT22;2313;48.552;9.370;2022-08-19T08:30:15;18.60;99.90
4602;DHT22;2313;48.552;9.370;2022-08-19T08:32:42;18.60;99.90
4602;DHT22;2313;48.552;9.370;2022-08-19T08:35:10;18.60;99.90
4602;DHT22;2313;48.552;9.370;2022-08-19T08:37:37;18.60;99.90
4602;DHT22;2313;48.552;9.370;2022-08-19T08:42:46;18.60;99.90
4602;DHT22;2313;48.552;9.370;2022-08-19T08:45:17;18.60;99.90
4602;DHT22;2313;48.552;9.370;2022-08-19T08:47:47;18.60;99.90
4602;DHT22;2313;48.552;9.370;2022-08-19T08:50:29;18.50;99.90
4602;DHT22;2313;48.552;9.370;2022-08-19T08:52:58;18.50;99.90
4602;DHT22;2313;48.552;9.370;2022-08-19T08:55:27;18.50;99.90
4602;DHT22;2313;48.552;9.370;2022-08-19T08:58:10;18.50;99.90
4602;DHT22;2313;48.552;9.370;2022-08-19T09:00:44;18.50;99.90
4602;DHT22;2313;48.552;9.370;2022-08-19T09:03:20;18.50;99.90
4602;DHT22;2313;48.552;9.370;2022-08-19T09:11:12;18.50;99.90
4602;DHT22;2313;48.552;9.370;2022-08-19T09:16:21;18.50;99.90
4602;DHT22;2313;48.552;9.370;2022-08-19T09:19:00;18.50;99.90
4602;DHT22;2313;48.552;9.370;2022-08-19T09:21:26;18.50;99.90
4602;DHT22;2313;48.552;9.370;2022-08-19T09:23:53;18.50;99.90
4602;DHT22;2313;48.552;9.370;2022-08-19T09:26:21;18.60;99.90
4602;DHT22;2313;48.552;9.370;2022-08-19T09:28:50;18.50;99.90
4602;DHT22;2313;48.552;9.370;2022-08-19T09:31:19;18.50;99.90
4602;DHT22;2313;48.552;9.370;2022-08-19T09:33:45;18.50;99.90
4602;DHT22;2313;48.552;9.370;2022-08-19T09:36:14;18.50;99.90
4602;DHT22;2313;48.552;9.370;2022-08-19T09:38:40;18.50;99.90
4602;DHT22;2313;48.552;9.370;2022-08-19T09:41:09;18.50;99.90
4602;DHT22;2313;48.552;9.370;2022-08-19T09:43:37;18.60;99.90
4602;DHT22;2313;48.552;9.370;2022-08-19T09:46:03;18.60;99.90
4602;DHT22;2313;48.552;9.370;2022-08-19T09:48:32;18.50;99.90
4602;DHT22;2313;48.552;9.370;2022-08-19T09:51:08;18.60;99.90
4602;DHT22;2313;48.552;9.370;2022-08-19T09:53:34;18.60;99.90
4602;DHT22;2313;48.552;9.370;2022-08-19T09:56:01;18.60;99.90
4602;DHT22;2313;48.552;9.370;2022-08-19T09:58:27;18.60;99.90
4602;DHT22;2313;48.552;9.370;2022-08-19T10:00:55;18.60;99.90
4602;DHT22;2313;48.552;9.370;2022-08-19T10:03:21;18.50;99.90
4602;DHT22;2313;48.552;9.370;2022-08-19T10:05:47;18.40;99.90
4602;DHT22;2313;48.552;9.370;2022-08-19T10:08:18;18.50;99.90
4602;DHT22;2313;48.552;9.370;2022-08-19T10:10:45;18.40;99.90
4602;DHT22;2313;48.552;9.370;2022-08-19T10:13:12;18.50;99.90
4602;DHT22;2313;48.552;9.370;2022-08-19T10:15:37;18.60;99.90
4602;DHT22;2313;48.552;9.370;2022-08-19T10:18:07;18.60;99.90
4602;DHT22;2313;48.552;9.370;2022-08-19T10:20:33;18.60;99.90
4602;DHT22;2313;48.552;9.370;2022-08-19T10:23:03;18.60;99.90
4602;DHT22;2313;48.552;9.370;2022-08-19T10:25:29;18.60;99.90
4602;DHT22;2313;48.552;9.370;2022-08-19T10:27:55;18.40;99.90
4602;DHT22;2313;48.552;9.370;2022-08-19T10:30:20;18.40;99.90
4602;DHT22;2313;48.552;9.370;2022-08-19T10:32:47;18.40;99.90
4602;DHT22;2313;48.552;9.370;2022-08-19T10:35:13;18.30;99.90
4602;DHT22;2313;48.552;9.370;2022-08-19T10:37:40;18.30;99.90
4602;DHT22;2313;48.552;9.370;2022-08-19T10:40:07;18.30;99.90
4602;DHT22;2313;48.552;9.370;2022-08-19T10:42:34;18.20;99.90
4602;DHT22;2313;48.552;9.370;2022-08-19T10:45:01;18.30;99.90
4602;DHT22;2313;48.552;9.370;2022-08-19T10:47:27;18.30;99.90
4602;DHT22;2313;48.552;9.370;2022-08-19T10:49:54;18.40;99.90
4602;DHT22;2313;48.552;9.370;2022-08-19T10:52:40;18.40;99.90
4602;DHT22;2313;48.552;9.370;2022-08-19T10:55:06;18.30;99.90
4602;DHT22;2313;48.552;9.370;2022-08-19T10:57:51;18.30;99.90
4602;DHT22;2313;48.552;9.370;2022-08-19T11:00:21;18.30;99.90
4602;DHT22;2313;48.552;9.370;2022-08-19T11:02:48;18.30;99.90
4602;DHT22;2313;48.552;9.370;2022-08-19T11:05:15;18.40;99.90
4602;DHT22;2313;48.552;9.370;2022-08-19T11:07:42;18.40;99.90
4602;DHT22;2313;48.552;9.370;2022-08-19T11:10:09;18.30;99.90
4602;DHT22;2313;48.552;9.370;2022-08-19T11:12:39;18.30;99.90
4602;DHT22;2313;48.552;9.370;2022-08-19T11:15:09;18.20;99.90
4602;DHT22;2313;48.552;9.370;2022-08-19T11:17:37;18.20;99.90
4602;DHT22;2313;48.552;9.370;2022-08-19T11:20:06;18.10;99.90
4602;DHT22;2313;48.552;9.370;2022-08-19T11:22:32;18.10;99.90
4602;DHT22;2313;48.552;9.370;2022-08-19T11:24:58;18.10;99.90
4602;DHT22;2313;48.552;9.370;2022-08-19T11:27:23;18.00;99.90
4602;DHT22;2313;48.552;9.370;2022-08-19T11:29:49;18.10;99.90
4602;DHT22;2313;48.552;9.370;2022-08-19T11:32:15;18.20;99.90
4602;DHT22;2313;48.552;9.370;2022-08-19T11:34:41;18.30;99.90
4602;DHT22;2313;48.552;9.370;2022-08-19T11:37:07;18.30;99.90
4602;DHT22;2313;48.552;9.370;2022-08-19T11:39:35;18.40;99.90
4602;DHT22;2313;48.552;9.370;2022-08-19T11:42:03;18.30;99.90
4602;DHT22;2313;48.552;9.370;2022-08-19T11:44:49;18.40;99.90
4602;DHT22;2313;48.552;9.370;2022-08-19T11:47:14;18.40;99.90
4602;DHT22;2313;48.552;9.370;2022-08-19T11:49:40;18.40;99.90
4602;DHT22;2313;48.552;9.370;2022-08-19T11:52:07;18.40;99.90
4602;DHT22;2313;48.552;9.370;2022-08-19T11:54:33;18.40;99.90
4602;DHT22;2313;48.552;9.370;2022-08-19T11:56:59;18.40;99.90
4602;DHT22;2313;48.552;9.370;2022-08-19T11:59:26;18.50;99.90
4602;DHT22;2313;48.552;9.370;2022-08-19T12:01:52;18.50;99.90
4602;DHT22;2313;48.552;9.370;2022-08-19T12:04:18;18.50;99.90
4602;DHT22;2313;48.552;9.370;2022-08-19T12:06:43;18.50;99.90
4602;DHT22;2313;48.552;9.370;2022-08-19T12:09:10;18.40;99.90
4602;DHT22;2313;48.552;9.370;2022-08-19T12:11:37;18.40;99.90
4602;DHT22;2313;48.552;9.370;2022-08-19T12:14:03;18.50;99.90
4602;DHT22;2313;48.552;9.370;2022-08-19T12:16:30;18.50;99.90
4602;DHT22;2313;48.552;9.370;2022-08-19T12:18:58;18.50;99.90
4602;DHT22;2313;48.552;9.370;2022-08-19T12:21:30;18.60;99.90
4602;DHT22;2313;48.552;9.370;2022-08-19T12:23:57;18.60;99.90
4602;DHT22;2313;48.552;9.370;2022-08-19T12:26:25;18.50;99.90
4602;DHT22;2313;48.552;9.370;2022-08-19T12:28:53;18.60;99.90
4602;DHT22;2313;48.552;9.370;2022-08-19T12:31:18;18.60;99.90
4602;DHT22;2313;48.552;9.370;2022-08-19T12:33:45;18.60;99.90
4602;DHT22;2313;48.552;9.370;2022-08-19T12:36:13;18.60;99.90
4602;DHT22;2313;48.552;9.370;2022-08-19T12:38:41;18.60;99.90
4602;DHT22;2313;48.552;9.370;2022-08-19T12:41:10;18.60;99.90
4602;DHT22;2313;48.552;9.370;2022-08-19T12:43:36;18.60;99.90
4602;DHT22;2313;48.552;9.370;2022-08-19T12:46:04;18.70;99.90
4602;DHT22;2313;48.552;9.370;2022-08-19T12:48:33;18.60;99.90
4602;DHT22;2313;48.552;9.370;2022-08-19T12:50:59;18.60;99.90
4602;DHT22;2313;48.552;9.370;2022-08-19T12:53:25;18.50;99.90
4602;DHT22;2313;48.552;9.370;2022-08-19T12:55:58;18.50;99.90
4602;DHT22;2313;48.552;9.370;2022-08-19T12:58:26;18.60;99.90
4602;DHT22;2313;48.552;9.370;2022-08-19T13:00:52;18.60;99.90
4602;DHT22;2313;48.552;9.370;2022-08-19T13:03:18;18.60;99.90
4602;DHT22;2313;48.552;9.370;2022-08-19T13:05:43;18.50;99.90
4602;DHT22;2313;48.552;9.370;2022-08-19T13:08:09;18.40;99.90
4602;DHT22;2313;48.552;9.370;2022-08-19T13:10:35;18.30;99.90
4602;DHT22;2313;48.552;9.370;2022-08-19T13:13:03;18.20;99.90
4602;DHT22;2313;48.552;9.370;2022-08-19T13:15:34;18.20;99.90
4602;DHT22;2313;48.552;9.370;2022-08-19T13:18:00;18.20;99.90
4602;DHT22;2313;48.552;9.370;2022-08-19T13:20:26;18.30;99.90
4602;DHT22;2313;48.552;9.370;2022-08-19T13:22:53;18.30;99.90
4602;DHT22;2313;48.552;9.370;2022-08-19T13:25:19;18.30;99.90
4602;DHT22;2313;48.552;9.370;2022-08-19T13:27:46;18.30;99.90
4602;DHT22;2313;48.552;9.370;2022-08-19T13:30:14;18.50;99.90
4602;DHT22;2313;48.552;9.370;2022-08-19T13:32:58;18.50;99.90
4602;DHT22;2313;48.552;9.370;2022-08-19T13:35:50;18.50;99.90
4602;DHT22;2313;48.552;9.370;2022-08-19T13:38:19;18.60;99.90
4602;DHT22;2313;48.552;9.370;2022-08-19T13:40:46;18.50;99.90
4602;DHT22;2313;48.552;9.370;2022-08-19T13:43:13;18.50;99.90
4602;DHT22;2313;48.552;9.370;2022-08-19T13:45:39;18.60;99.90
4602;DHT22;2313;48.552;9.370;2022-08-19T13:48:06;18.60;99.90
4602;DHT22;2313;48.552;9.370;2022-08-19T13:50:35;18.70;99.90
4602;DHT22;2313;48.552;9.370;2022-08-19T13:53:03;18.70;99.90
4602;DHT22;2313;48.552;9.370;2022-08-19T13:55:29;18.60;99.90
4602;DHT22;2313;48.552;9.370;2022-08-19T13:57:57;18.50;99.90
4602;DHT22;2313;48.552;9.370;2022-08-19T14:00:24;18.50;99.90
4602;DHT22;2313;48.552;9.370;2022-08-19T14:02:53;18.60;99.90
4602;DHT22;2313;48.552;9.370;2022-08-19T14:05:19;18.60;99.90
4602;DHT22;2313;48.552;9.370;2022-08-19T14:07:45;18.60;99.90
4602;DHT22;2313;48.552;9.370;2022-08-19T14:10:12;18.60;99.90
4602;DHT22;2313;48.552;9.370;2022-08-19T14:12:38;18.70;99.90
4602;DHT22;2313;48.552;9.370;2022-08-19T14:15:07;18.80;99.90
4602;DHT22;2313;48.552;9.370;2022-08-19T14:17:33;18.70;99.90
4602;DHT22;2313;48.552;9.370;2022-08-19T14:20:03;18.60;99.90
4602;DHT22;2313;48.552;9.370;2022-08-19T14:22:36;18.60;99.90
4602;DHT22;2313;48.552;9.370;2022-08-19T14:25:07;18.50;99.90
4602;DHT22;2313;48.552;9.370;2022-08-19T14:27:34;18.50;99.90
4602;DHT22;2313;48.552;9.370;2022-08-19T14:30:00;18.60;99.90
4602;DHT22;2313;48.552;9.370;2022-08-19T14:32:26;18.60;99.90
4602;DHT22;2313;48.552;9.370;2022-08-19T14:34:52;18.60;99.90
4602;DHT22;2313;48.552;9.370;2022-08-19T14:37:18;18.60;99.90
4602;DHT22;2313;48.552;9.370;2022-08-19T14:39:44;18.70;99.90
4602;DHT22;2313;48.552;9.370;2022-08-19T14:42:11;18.70;99.90
4602;DHT22;2313;48.552;9.370;2022-08-19T14:44:39;18.70;99.90
4602;DHT22;2313;48.552;9.370;2022-08-19T14:47:05;18.80;99.90
4602;DHT22;2313;48.552;9.370;2022-08-19T14:49:32;18.70;99.90
4602;DHT22;2313;48.552;9.370;2022-08-19T14:51:57;18.60;99.90
4602;DHT22;2313;48.552;9.370;2022-08-19T14:54:23;18.60;99.90
4602;DHT22;2313;48.552;9.370;2022-08-19T14:56:49;18.60;99.90
4602;DHT22;2313;48.552;9.370;2022-08-19T14:59:15;18.60;99.90
4602;DHT22;2313;48.552;9.370;2022-08-19T15:01:42;18.60;99.90
4602;DHT22;2313;48.552;9.370;2022-08-19T15:04:07;18.50;99.90
4602;DHT22;2313;48.552;9.370;2022-08-19T15:06:33;18.60;99.90
4602;DHT22;2313;48.552;9.370;2022-08-19T15:08:59;18.60;99.90
4602;DHT22;2313;48.552;9.370;2022-08-19T15:11:27;18.60;99.90
4602;DHT22;2313;48.552;9.370;2022-08-19T15:13:54;18.40;99.90
4602;DHT22;2313;48.552;9.370;2022-08-19T15:16:21;18.30;99.90
4602;DHT22;2313;48.552;9.370;2022-08-19T15:18:50;18.30;99.90
4602;DHT22;2313;48.552;9.370;2022-08-19T15:21:16;18.40;99.90
4602;DHT22;2313;48.552;9.370;2022-08-19T15:23:46;18.40;99.90
4602;DHT22;2313;48.552;9.370;2022-08-19T15:26:14;18.50;99.90
4602;DHT22;2313;48.552;9.370;2022-08-19T15:28:40;18.60;99.90
4602;DHT22;2313;48.552;9.370;2022-08-19T15:31:06;18.60;99.90
4602;DHT22;2313;48.552;9.370;2022-08-19T15:33:33;18.70;99.90
4602;DHT22;2313;48.552;9.370;2022-08-19T15:36:03;18.80;99.90
4602;DHT22;2313;48.552;9.370;2022-08-19T15:38:30;18.80;99.90
4602;DHT22;2313;48.552;9.370;2022-08-19T15:40:59;18.90;99.90
4602;DHT22;2313;48.552;9.370;2022-08-19T15:43:46;19.00;99.90
4602;DHT22;2313;48.552;9.370;2022-08-19T15:46:17;19.00;99.90
4602;DHT22;2313;48.552;9.370;2022-08-19T15:48:43;18.80;99.90
4602;DHT22;2313;48.552;9.370;2022-08-19T15:51:09;18.90;99.90
4602;DHT22;2313;48.552;9.370;2022-08-19T15:53:35;18.90;99.90
4602;DHT22;2313;48.552;9.370;2022-08-19T15:56:00;18.80;99.90
4602;DHT22;2313;48.552;9.370;2022-08-19T15:58:26;19.00;99.90
4602;DHT22;2313;48.552;9.370;2022-08-19T16:01:10;18.90;99.90
4602;DHT22;2313;48.552;9.370;2022-08-19T16:03:56;19.00;99.90
4602;DHT22;2313;48.552;9.370;2022-08-19T16:06:48;19.00;99.90
4602;DHT22;2313;48.552;9.370;2022-08-19T16:09:16;19.10;99.90
4602;DHT22;2313;48.552;9.370;2022-08-19T16:11:43;19.10;99.90
4602;DHT22;2313;48.552;9.370;2022-08-19T16:14:09;19.10;99.90
4602;DHT22;2313;48.552;9.370;2022-08-19T16:16:36;19.20;99.90
4602;DHT22;2313;48.552;9.370;2022-08-19T16:19:05;19.20;99.90
4602;DHT22;2313;48.552;9.370;2022-08-19T16:21:33;19.10;99.90
4602;DHT22;2313;48.552;9.370;2022-08-19T16:24:05;19.20;99.90